Etusivu
METAR-TAF:

METAR-TAF

Lentoasemat :

Eastmain River, Quebec, Kanada

Leveyspiiri: 52-14N, Pituuspiiri: 078-31W, korkeus merenpinnasta: 7 m

Tämänhetkinen sää

Tämä raportti tehtiin 40 minuuttia sitten, kello 14.00 UTC
Tuuli 2 kn eri suunnista
Lämpötila 6°C
Kosteus 81%
Ilmanpaine 1026 hPa
Näkyvyys: 24.1 km
selkeää

METAR: CZEM 221400Z VRB02KT 15SM SKC 06/03 A3029 RMK SLP260

Aika: 10:40 (14:40 UTC)


TAF: puuttuu

Säähavainnot ja -ennusteet yli 4000 lentoasemalta (METAR- ja TAF-raportit).

Käytössä olevat sääasemat on merkitty karttaan keltaisilla ja punaisilla pisteillä.

Aseta hiiri pisteen päälle nähdäksesi sääaseman nimen.

Klikkaa sitten nähdäksesi säähavainnot ja -ennusteet.

Kartan vaihtaminen: klikkaa mustalla rastilla varustettuja vihreitä pisteitä, niin voit zoomata sisään; viivalla varustettua vihreää pistettä, niin voit zoomata ulos tai vihreitä nuolia, niin pääset viereisille kartoille.


METAR-TAF: